Terminal Aerodrome Forecast
Issued by NWS Melbourne, FL

Home | Current Version | Previous Version | Text Only | Print | Product List | Glossary On
Versions: 1 2 3 4 5 6 7 8 9 10 11 12 13 14 15 16 17 18 19 20 21 22 23 24 25
857
FTUS42 KMLB 291732
TAFMCO
TAF
KMCO 291732Z 2918/3018 07011G17KT P6SM VCSH SCT025 BKN080
      TEMPO 2919/2922 TS BKN025CB BKN050
     FM300000 06007KT P6SM SCT030 SCT100 BKN250
     FM301500 10008KT P6SM VCSH SCT035 BKN100=

USA.gov is the U.S. government's official web portal to all federal, state and local government web resources and services.